Time;durP1;ratioP1;P1;durP2;ratioP2;P2;SDS_P1;SDS_P2;PMS_P1;PMS_P2;Temp;Humidity;BMP_temperature;BMP_pressure;BME280_temperature;BME280_humidity;BME280_pressure;Samples;Min_cycle;Max_cycle;Signal;HPM_P1;HPM_P2
2021/07/12 00:01:04;;;;;;;16.13;9.13;;;14.60;99.90;;;;;;5047728;28;20064;-68
2021/07/12 00:03:31;;;;;;;16.08;9.93;;;14.50;99.90;;;;;;5046800;28;20055;-68
2021/07/12 00:05:58;;;;;;;17.40;9.70;;;14.50;99.90;;;;;;5047406;28;20470;-68
2021/07/12 00:08:26;;;;;;;17.25;9.65;;;14.50;99.90;;;;;;5047042;28;20053;-68
2021/07/12 00:10:54;;;;;;;13.10;8.57;;;14.50;99.90;;;;;;5047812;28;20060;-68
2021/07/12 00:13:22;;;;;;;17.90;9.60;;;14.40;99.90;;;;;;5047872;28;20048;-68
2021/07/12 00:15:49;;;;;;;15.43;10.02;;;14.40;99.90;;;;;;5047459;28;20083;-68
2021/07/12 00:18:16;;;;;;;19.17;9.30;;;14.50;99.90;;;;;;5046726;28;20056;-68
2021/07/12 00:20:43;;;;;;;16.23;10.43;;;14.50;99.90;;;;;;5047784;28;20117;-68
2021/07/12 00:23:10;;;;;;;21.52;10.40;;;14.50;99.90;;;;;;5048024;28;20048;-68
2021/07/12 00:25:37;;;;;;;18.83;9.40;;;14.40;99.90;;;;;;5048069;28;20064;-68
2021/07/12 00:28:07;;;;;;;16.17;9.73;;;14.30;99.90;;;;;;5045862;28;20496;-68
2021/07/12 00:30:34;;;;;;;17.27;9.70;;;14.30;99.90;;;;;;5045628;28;20131;-68
2021/07/12 00:33:01;;;;;;;14.45;9.05;;;14.30;99.90;;;;;;5046840;28;20102;-68
2021/07/12 00:35:29;;;;;;;17.63;9.18;;;14.30;99.90;;;;;;5047435;28;20983;-68
2021/07/12 00:37:56;;;;;;;13.15;8.38;;;14.40;99.90;;;;;;5046466;28;20574;-68
2021/07/12 00:40:27;;;;;;;17.05;9.63;;;14.30;99.90;;;;;;5047605;28;20048;-68
2021/07/12 00:42:55;;;;;;;17.20;8.60;;;14.30;99.90;;;;;;5046896;28;20057;-69
2021/07/12 00:45:25;;;;;;;18.60;8.63;;;14.30;99.90;;;;;;5048311;28;20106;-68
2021/07/12 00:47:54;;;;;;;13.30;8.05;;;14.20;99.90;;;;;;5046317;28;20110;-68
2021/07/12 00:50:24;;;;;;;13.38;8.10;;;14.30;99.90;;;;;;5048564;28;20400;-68
2021/07/12 00:52:52;;;;;;;14.05;8.00;;;14.30;99.90;;;;;;5051182;28;20045;-68
2021/07/12 00:55:25;;;;;;;11.90;7.90;;;14.30;99.90;;;;;;5049921;28;20463;-68
2021/07/12 00:57:52;;;;;;;15.00;8.15;;;14.20;99.90;;;;;;5051476;28;20194;-68
2021/07/12 01:00:21;;;;;;;13.85;7.90;;;14.30;99.90;;;;;;5051051;28;20493;-68
2021/07/12 01:02:50;;;;;;;20.92;8.38;;;14.30;99.90;;;;;;5050126;28;20060;-67
2021/07/12 01:05:20;;;;;;;16.85;8.07;;;14.30;99.90;;;;;;5050936;28;20520;-68
2021/07/12 01:07:47;;;;;;;16.40;6.93;;;14.30;99.90;;;;;;5049783;28;20110;-68
2021/07/12 01:10:17;;;;;;;14.98;7.38;;;14.30;99.90;;;;;;5050858;28;20835;-68
2021/07/12 01:12:55;;;;;;;13.88;8.18;;;14.40;99.90;;;;;;5051059;28;20151;-68
2021/07/12 01:15:24;;;;;;;13.00;6.90;;;14.40;99.90;;;;;;5050746;28;20094;-68
2021/07/12 01:18:02;;;;;;;19.77;7.38;;;14.40;99.90;;;;;;5049594;28;20059;-68
2021/07/12 01:21:04;;;;;;;10.90;6.80;;;14.40;99.90;;;;;;5050729;28;20106;-69
2021/07/12 01:23:43;;;;;;;10.98;6.53;;;14.50;99.90;;;;;;5050623;28;21042;-69
2021/07/12 01:26:51;;;;;;;8.90;5.82;;;14.50;99.90;;;;;;5050500;28;20052;-68
2021/07/12 01:29:24;;;;;;;7.80;5.20;;;14.50;99.90;;;;;;5001126;28;20122;-68
2021/07/12 01:32:25;;;;;;;10.40;6.20;;;14.40;99.90;;;;;;5049963;28;20646;-68
2021/07/12 01:35:01;;;;;;;9.18;5.47;;;14.40;99.90;;;;;;5050306;28;20106;-69
2021/07/12 01:37:36;;;;;;;11.57;5.57;;;14.50;99.90;;;;;;5050145;28;20475;-68
2021/07/12 01:40:08;;;;;;;9.07;5.97;;;14.50;99.90;;;;;;5050440;28;20498;-68
2021/07/12 01:42:42;;;;;;;9.55;5.70;;;14.40;99.90;;;;;;5050810;28;20057;-68
2021/07/12 01:45:13;;;;;;;10.50;6.00;;;14.40;99.90;;;;;;5049729;28;20052;-68
2021/07/12 01:47:51;;;;;;;10.18;5.82;;;14.40;99.90;;;;;;5048977;28;20059;-68
2021/07/12 01:50:28;;;;;;;11.35;6.80;;;14.50;99.90;;;;;;5049791;28;20052;-69
2021/07/12 01:53:12;;;;;;;;;;;14.40;99.90;;;;;;5051142;28;20049;-68
2021/07/12 01:55:48;;;;;;;10.10;6.10;;;14.30;99.90;;;;;;5050210;28;20230;-68
2021/07/12 01:58:20;;;;;;;11.60;7.17;;;14.30;99.90;;;;;;5049107;28;20386;-68
2021/07/12 02:00:49;;;;;;;13.63;6.60;;;14.30;99.90;;;;;;5049924;28;20500;-68
2021/07/12 02:03:19;;;;;;;11.70;6.40;;;14.30;99.90;;;;;;5048711;28;20499;-68
2021/07/12 02:05:48;;;;;;;8.50;5.63;;;14.30;99.90;;;;;;5049591;28;20048;-68
2021/07/12 02:08:18;;;;;;;9.65;6.15;;;14.30;99.90;;;;;;5048245;28;20567;-68
2021/07/12 02:10:47;;;;;;;27.80;7.05;;;14.20;99.90;;;;;;5049809;28;20109;-68
2021/07/12 02:13:15;;;;;;;35.70;7.30;;;14.30;99.90;;;;;;5049216;28;20056;-68
2021/07/12 02:15:46;;;;;;;15.60;7.32;;;14.20;99.90;;;;;;5049994;28;20611;-68
2021/07/12 02:18:15;;;;;;;23.15;7.32;;;14.20;99.90;;;;;;5049789;28;20512;-68
2021/07/12 02:20:46;;;;;;;50.53;8.57;;;14.30;99.90;;;;;;5049686;28;20102;-68
2021/07/12 02:23:14;;;;;;;25.30;8.27;;;14.30;99.90;;;;;;5049909;28;20071;-68
2021/07/12 02:25:42;;;;;;;31.83;7.90;;;14.20;99.90;;;;;;5047719;28;20333;-69
2021/07/12 02:28:10;;;;;;;29.02;8.55;;;14.20;99.90;;;;;;5045474;28;20049;-68
2021/07/12 02:30:39;;;;;;;59.88;10.40;;;14.20;99.90;;;;;;5048715;28;20056;-68
2021/07/12 02:33:06;;;;;;;32.00;11.00;;;14.20;99.90;;;;;;5047608;28;21450;-68
2021/07/12 02:35:34;;;;;;;34.63;11.25;;;14.20;99.90;;;;;;5047833;28;20493;-68
2021/07/12 02:38:03;;;;;;;23.40;9.68;;;14.20;99.90;;;;;;5047385;28;20106;-68
2021/07/12 02:40:30;;;;;;;61.30;11.82;;;14.20;99.90;;;;;;5048346;28;20124;-68
2021/07/12 02:42:59;;;;;;;28.15;10.68;;;14.20;99.90;;;;;;5048842;28;20451;-68
2021/07/12 02:45:30;;;;;;;52.33;12.63;;;14.20;99.90;;;;;;5048191;28;20044;-68
2021/07/12 02:47:57;;;;;;;57.47;14.05;;;14.20;99.90;;;;;;5047310;28;20126;-69
2021/07/12 02:50:27;;;;;;;146.18;16.70;;;14.20;99.90;;;;;;5048049;28;20094;-68
2021/07/12 02:53:01;;;;;;;66.53;12.82;;;14.20;99.90;;;;;;5049223;28;20052;-68
2021/07/12 02:55:30;;;;;;;35.72;11.70;;;14.20;99.90;;;;;;5047272;28;20125;-68
2021/07/12 02:57:57;;;;;;;90.03;15.93;;;14.30;99.90;;;;;;5047195;28;20044;-68
2021/07/12 03:00:24;;;;;;;73.70;13.02;;;14.30;99.90;;;;;;5048420;28;20044;-68
2021/07/12 03:02:51;;;;;;;109.53;14.65;;;14.30;99.90;;;;;;5048540;28;20087;-68
2021/07/12 03:05:18;;;;;;;92.53;14.18;;;14.50;99.90;;;;;;5047085;28;20133;-68
2021/07/12 03:07:48;;;;;;;70.20;13.00;;;14.50;99.90;;;;;;5047334;28;20056;-68
2021/07/12 03:10:20;;;;;;;42.97;12.02;;;14.50;99.90;;;;;;5047468;28;20060;-68
2021/07/12 03:12:52;;;;;;;42.33;11.18;;;14.50;99.90;;;;;;5046494;28;20052;-68
2021/07/12 03:15:25;;;;;;;57.63;12.85;;;14.40;99.90;;;;;;5047661;28;20075;-68
2021/07/12 03:17:54;;;;;;;462.90;25.23;;;14.40;99.90;;;;;;5046777;28;20570;-68
2021/07/12 03:20:21;;;;;;;171.48;15.48;;;14.20;99.90;;;;;;5047044;28;20040;-68
2021/07/12 03:22:52;;;;;;;260.73;19.17;;;14.30;99.90;;;;;;5047312;28;20102;-68
2021/07/12 03:25:23;;;;;;;76.13;13.18;;;14.30;99.90;;;;;;5046988;28;20123;-68
2021/07/12 03:27:55;;;;;;;93.95;13.55;;;14.30;99.90;;;;;;5047288;28;20056;-68
2021/07/12 03:30:24;;;;;;;70.00;11.15;;;14.30;99.90;;;;;;5047493;28;20102;-68
2021/07/12 03:32:52;;;;;;;154.65;16.70;;;14.30;99.90;;;;;;5046963;28;20049;-68
2021/07/12 03:35:21;;;;;;;114.28;14.15;;;14.30;99.90;;;;;;5048188;28;20052;-68
2021/07/12 03:37:48;;;;;;;95.38;14.05;;;14.30;99.90;;;;;;5046007;28;20087;-68
2021/07/12 03:40:16;;;;;;;55.45;12.02;;;14.40;99.90;;;;;;5047777;28;20048;-68
2021/07/12 03:42:43;;;;;;;122.53;14.43;;;14.40;99.90;;;;;;5047544;28;20048;-68
2021/07/12 03:45:14;;;;;;;76.30;13.68;;;14.40;99.90;;;;;;5046427;28;20052;-68
2021/07/12 03:47:41;;;;;;;137.93;13.35;;;14.40;99.90;;;;;;5046442;28;20509;-69
2021/07/12 03:50:11;;;;;;;175.32;14.75;;;14.40;99.90;;;;;;5046420;28;20052;-68
2021/07/12 03:52:44;;;;;;;104.57;14.55;;;14.20;99.90;;;;;;5046950;28;20501;-68
2021/07/12 03:55:14;;;;;;;167.73;17.15;;;14.30;99.90;;;;;;5047199;28;20424;-68
2021/07/12 03:57:42;;;;;;;137.00;14.70;;;14.30;99.90;;;;;;5047718;28;20141;-68
2021/07/12 04:00:13;;;;;;;137.38;15.25;;;14.20;99.90;;;;;;5046706;28;20101;-68
2021/07/12 04:02:40;;;;;;;179.07;15.48;;;14.30;99.90;;;;;;5047280;28;20052;-68
2021/07/12 04:05:09;;;;;;;121.38;13.50;;;14.20;99.90;;;;;;5046856;28;20576;-68
2021/07/12 04:07:37;;;;;;;122.03;13.25;;;14.30;99.90;;;;;;5046425;28;20191;-68
2021/07/12 04:10:05;;;;;;;118.97;13.32;;;14.40;99.90;;;;;;5047420;28;20037;-68
2021/07/12 04:12:33;;;;;;;129.82;14.07;;;14.40;99.90;;;;;;5046463;28;20114;-68
2021/07/12 04:15:00;;;;;;;189.98;16.13;;;14.50;99.90;;;;;;5047427;28;20080;-68
2021/07/12 04:17:28;;;;;;;105.97;12.38;;;14.60;99.90;;;;;;5045969;28;20057;-68
2021/07/12 04:19:56;;;;;;;214.20;17.02;;;14.40;99.90;;;;;;5046233;28;20389;-68
2021/07/12 04:22:24;;;;;;;287.65;24.20;;;14.40;99.90;;;;;;5047329;28;20059;-68
2021/07/12 04:24:51;;;;;;;126.57;14.55;;;14.40;99.90;;;;;;5050616;28;20071;-68
2021/07/12 04:27:19;;;;;;;117.72;14.30;;;14.70;99.90;;;;;;5052300;28;20115;-68
2021/07/12 04:29:46;;;;;;;121.72;14.80;;;14.70;99.90;;;;;;5049919;28;20084;-68
2021/07/12 04:32:13;;;;;;;162.07;16.90;;;14.60;99.90;;;;;;5049604;28;20114;-68
2021/07/12 04:34:42;;;;;;;134.88;17.17;;;14.70;99.90;;;;;;5051173;28;20098;-68
2021/07/12 04:37:09;;;;;;;107.80;14.30;;;14.80;99.90;;;;;;5050105;28;20048;-68
2021/07/12 04:39:36;;;;;;;59.20;15.13;;;14.80;99.90;;;;;;5049927;28;20645;-68
2021/07/12 04:42:03;;;;;;;95.32;15.85;;;14.80;99.90;;;;;;5050478;28;20048;-68
2021/07/12 04:44:30;;;;;;;91.85;14.32;;;14.90;99.90;;;;;;5052892;28;20076;-68
2021/07/12 04:46:59;;;;;;;38.40;13.45;;;14.90;99.90;;;;;;5055081;28;20048;-68
2021/07/12 04:49:26;;;;;;;90.38;15.43;;;15.00;99.90;;;;;;5053941;28;20389;-68
2021/07/12 04:51:55;;;;;;;39.30;12.40;;;15.00;99.90;;;;;;5054075;28;20101;-68
2021/07/12 04:54:22;;;;;;;31.90;13.10;;;15.10;99.90;;;;;;5052665;28;20117;-68
2021/07/12 04:56:49;;;;;;;26.42;12.02;;;15.10;99.90;;;;;;5054009;28;20048;-68
2021/07/12 04:59:17;;;;;;;43.65;12.52;;;15.20;99.90;;;;;;5052574;28;20574;-68
2021/07/12 05:01:45;;;;;;;26.38;11.55;;;15.20;99.90;;;;;;5051986;28;20060;-68
2021/07/12 05:04:12;;;;;;;77.72;13.15;;;15.30;99.90;;;;;;5050140;28;20048;-68
2021/07/12 05:06:39;;;;;;;80.22;14.43;;;15.20;99.90;;;;;;5049875;28;20129;-68
2021/07/12 05:09:07;;;;;;;133.27;16.48;;;15.30;99.90;;;;;;5049629;28;20139;-68
2021/07/12 05:11:35;;;;;;;52.88;12.45;;;15.20;99.90;;;;;;5049975;28;20044;-68
2021/07/12 05:14:02;;;;;;;46.35;12.73;;;15.30;99.90;;;;;;5050036;28;20052;-68
2021/07/12 05:16:29;;;;;;;80.40;15.50;;;15.40;99.90;;;;;;5050302;28;20049;-68
2021/07/12 05:18:56;;;;;;;62.08;13.05;;;15.30;99.90;;;;;;5049687;28;20088;-68
2021/07/12 05:21:23;;;;;;;33.88;13.02;;;15.40;99.90;;;;;;5050485;28;20084;-68
2021/07/12 05:23:53;;;;;;;37.60;13.48;;;15.50;99.90;;;;;;5054047;28;20993;-68
2021/07/12 05:26:22;;;;;;;49.63;13.23;;;15.50;99.90;;;;;;5049089;28;20131;-68
2021/07/12 05:28:49;;;;;;;25.83;12.13;;;15.60;99.90;;;;;;5049619;28;20060;-68
2021/07/12 05:31:16;;;;;;;93.32;13.77;;;15.80;99.90;;;;;;5052856;28;20059;-68
2021/07/12 05:33:43;;;;;;;41.92;13.05;;;15.80;99.90;;;;;;5053440;28;20685;-68
2021/07/12 05:36:10;;;;;;;28.63;12.45;;;15.90;99.90;;;;;;5050239;28;20511;-68
2021/07/12 05:38:37;;;;;;;33.65;11.60;;;16.00;99.90;;;;;;5048784;28;20129;-68
2021/07/12 05:41:04;;;;;;;26.02;12.05;;;16.00;99.90;;;;;;5049164;28;20048;-68
2021/07/12 05:43:32;;;;;;;58.85;13.07;;;16.00;99.90;;;;;;5052230;28;20044;-68
2021/07/12 05:45:59;;;;;;;26.88;11.63;;;15.80;99.90;;;;;;5056389;28;20133;-69
2021/07/12 05:48:26;;;;;;;46.25;11.52;;;16.00;99.90;;;;;;5053427;28;20129;-68
2021/07/12 05:50:53;;;;;;;26.38;11.02;;;16.00;99.90;;;;;;5054483;28;20145;-69
2021/07/12 05:53:20;;;;;;;26.27;10.70;;;16.20;99.90;;;;;;5054327;28;20072;-68
2021/07/12 05:55:47;;;;;;;29.98;12.27;;;16.20;99.90;;;;;;5054190;28;20157;-68
2021/07/12 05:58:14;;;;;;;24.25;12.25;;;16.30;99.90;;;;;;5053457;28;20146;-68
2021/07/12 06:00:42;;;;;;;22.80;12.27;;;16.30;99.90;;;;;;5054384;28;20148;-68
2021/07/12 06:03:10;;;;;;;16.13;9.57;;;16.60;99.90;;;;;;5054037;28;20044;-68
2021/07/12 06:05:37;;;;;;;14.10;9.18;;;16.70;99.90;;;;;;5054030;28;20095;-68
2021/07/12 06:08:05;;;;;;;15.13;8.80;;;16.70;99.90;;;;;;5052175;28;20084;-69
2021/07/12 06:10:32;;;;;;;14.75;9.20;;;16.80;99.90;;;;;;5049757;28;20443;-68
2021/07/12 06:12:59;;;;;;;13.20;8.38;;;16.90;99.90;;;;;;5049335;28;20044;-68
2021/07/12 06:15:26;;;;;;;20.83;10.23;;;16.90;99.90;;;;;;5048733;28;20122;-68
2021/07/12 06:17:54;;;;;;;12.68;8.70;;;16.70;99.90;;;;;;5048706;28;20048;-68
2021/07/12 06:20:22;;;;;;;19.75;10.52;;;16.90;99.90;;;;;;5050134;28;20102;-68
2021/07/12 06:22:50;;;;;;;13.88;9.13;;;17.20;99.90;;;;;;5049824;28;20057;-68
2021/07/12 06:25:19;;;;;;;14.77;8.43;;;17.00;99.90;;;;;;5048535;28;20621;-68
2021/07/12 06:27:47;;;;;;;12.77;8.70;;;17.30;99.90;;;;;;5048939;28;20105;-68
2021/07/12 06:30:15;;;;;;;15.18;8.63;;;17.50;99.90;;;;;;5048540;28;20137;-68
2021/07/12 06:32:42;;;;;;;14.68;8.90;;;17.60;99.90;;;;;;5049401;28;20056;-68
2021/07/12 06:35:13;;;;;;;14.13;9.75;;;17.80;99.90;;;;;;5049069;28;20102;-68
2021/07/12 06:37:40;;;;;;;13.98;8.68;;;17.90;99.90;;;;;;5048206;28;20056;-68
2021/07/12 06:40:09;;;;;;;14.38;8.35;;;18.10;99.90;;;;;;5048802;28;20545;-68
2021/07/12 06:42:37;;;;;;;15.40;8.85;;;18.30;99.90;;;;;;5048888;28;20469;-68
2021/07/12 06:45:04;;;;;;;10.82;7.90;;;18.50;99.90;;;;;;5048851;28;20049;-68
2021/07/12 06:47:32;;;;;;;12.77;8.88;;;18.50;99.90;;;;;;5047279;28;20541;-68
2021/07/12 06:49:59;;;;;;;13.13;9.65;;;18.60;99.90;;;;;;5048853;28;20056;-68
2021/07/12 06:52:27;;;;;;;14.65;8.93;;;18.40;99.90;;;;;;5049138;28;20117;-68
2021/07/12 06:54:55;;;;;;;12.13;8.60;;;18.10;99.90;;;;;;5049394;28;20052;-68
2021/07/12 06:57:22;;;;;;;14.73;9.75;;;18.10;99.90;;;;;;5048821;28;20489;-68
2021/07/12 06:59:50;;;;;;;14.00;8.10;;;18.30;99.90;;;;;;5048011;28;20052;-68
2021/07/12 07:02:17;;;;;;;12.80;9.45;;;18.40;99.90;;;;;;5048993;28;20068;-68
2021/07/12 07:04:44;;;;;;;13.18;9.02;;;18.40;99.90;;;;;;5049675;28;20057;-68
2021/07/12 07:07:12;;;;;;;12.70;9.20;;;18.60;99.90;;;;;;5047549;28;20052;-68
2021/07/12 07:09:40;;;;;;;12.50;8.43;;;18.70;99.90;;;;;;5047644;28;20405;-67
2021/07/12 07:12:08;;;;;;;12.05;7.72;;;18.60;99.90;;;;;;5048594;28;20609;-67
2021/07/12 07:14:35;;;;;;;11.40;7.63;;;18.70;99.90;;;;;;5048696;28;20055;-68
2021/07/12 07:17:02;;;;;;;13.35;8.88;;;18.70;99.90;;;;;;5047896;28;20052;-68
2021/07/12 07:19:29;;;;;;;11.82;8.93;;;18.60;99.90;;;;;;5047037;28;20210;-68
2021/07/12 07:21:56;;;;;;;10.85;7.78;;;18.70;99.90;;;;;;5048419;28;20381;-68
2021/07/12 07:24:23;;;;;;;12.45;8.13;;;18.70;99.90;;;;;;5048446;28;20114;-68
2021/07/12 07:26:51;;;;;;;8.98;5.97;;;18.80;99.90;;;;;;5048317;28;20048;-68
2021/07/12 07:29:21;;;;;;;9.23;5.78;;;19.00;99.90;;;;;;5047344;28;20062;-68
2021/07/12 07:31:49;;;;;;;13.93;8.55;;;19.20;99.90;;;;;;5048048;28;20068;-68
2021/07/12 07:34:16;;;;;;;10.88;8.93;;;19.20;99.90;;;;;;5047847;28;20949;-68
2021/07/12 07:36:43;;;;;;;13.57;8.90;;;19.30;99.90;;;;;;5047900;28;20130;-68
2021/07/12 07:39:11;;;;;;;15.75;8.10;;;19.20;99.90;;;;;;5046741;28;20431;-68
2021/07/12 07:41:40;;;;;;;11.82;8.15;;;19.10;99.90;;;;;;5047947;28;20424;-68
2021/07/12 07:44:08;;;;;;;13.15;7.68;;;19.20;99.90;;;;;;5048728;28;20443;-68
2021/07/12 07:46:36;;;;;;;7.43;5.53;;;19.20;99.90;;;;;;5048674;28;20130;-68
2021/07/12 07:49:07;;;;;;;7.63;4.65;;;19.30;99.90;;;;;;5046946;28;20139;-67
2021/07/12 07:51:34;;;;;;;9.60;5.28;;;19.10;99.90;;;;;;5048143;28;20080;-68
2021/07/12 07:54:01;;;;;;;8.73;5.10;;;19.20;99.90;;;;;;5047699;28;20056;-68
2021/07/12 07:56:28;;;;;;;9.93;5.43;;;19.30;99.90;;;;;;5047026;28;20064;-68
2021/07/12 07:58:55;;;;;;;8.13;5.15;;;19.40;99.90;;;;;;5047178;28;20056;-68
2021/07/12 08:01:23;;;;;;;11.00;5.25;;;19.40;99.90;;;;;;5052403;28;20451;-68
2021/07/12 08:03:50;;;;;;;7.70;4.13;;;19.50;99.90;;;;;;5052410;28;20053;-68
2021/07/12 08:06:18;;;;;;;8.77;4.32;;;19.90;99.90;;;;;;5052200;28;20086;-69
2021/07/12 08:08:45;;;;;;;9.27;4.10;;;20.30;99.90;;;;;;5050871;28;20131;-68
2021/07/12 08:11:12;;;;;;;6.35;3.95;;;20.50;99.90;;;;;;5052410;28;20053;-68
2021/07/12 08:13:39;;;;;;;11.70;4.05;;;20.70;99.90;;;;;;5051816;28;20063;-68
2021/07/12 08:16:06;;;;;;;8.43;4.28;;;21.10;99.90;;;;;;5052119;28;20070;-68
2021/07/12 08:18:36;;;;;;;5.65;3.63;;;21.30;99.90;;;;;;5050411;28;20056;-68
2021/07/12 08:21:03;;;;;;;7.22;3.38;;;21.30;99.90;;;;;;5051949;28;20060;-68
2021/07/12 08:23:31;;;;;;;6.65;3.70;;;21.90;99.90;;;;;;5051449;28;20052;-68
2021/07/12 08:25:58;;;;;;;5.75;2.58;;;22.30;99.90;;;;;;5051643;28;20455;-68
2021/07/12 08:28:25;;;;;;;5.90;3.58;;;22.40;99.90;;;;;;5050694;28;20412;-68
2021/07/12 08:30:53;;;;;;;6.65;3.92;;;22.40;99.90;;;;;;5051088;28;20180;-68
2021/07/12 08:33:21;;;;;;;6.72;3.63;;;22.10;99.90;;;;;;5052130;28;20427;-68
2021/07/12 08:35:50;;;;;;;6.07;3.55;;;21.70;99.90;;;;;;5050495;28;20056;-68
2021/07/12 08:38:17;;;;;;;6.00;3.47;;;21.90;99.90;;;;;;5050840;28;20045;-68
2021/07/12 08:40:45;;;;;;;4.93;2.80;;;21.90;99.90;;;;;;5051435;28;20532;-68
2021/07/12 08:43:14;;;;;;;5.30;3.92;;;22.10;99.90;;;;;;5050269;28;20053;-68
2021/07/12 08:45:41;;;;;;;6.45;3.78;;;21.80;99.90;;;;;;5051813;28;20079;-68
2021/07/12 08:48:08;;;;;;;6.18;3.58;;;21.50;99.90;;;;;;5051061;28;20048;-68
2021/07/12 08:50:35;;;;;;;5.38;3.72;;;21.80;99.90;;;;;;5050402;28;20053;-68
2021/07/12 08:53:04;;;;;;;4.45;2.90;;;22.10;99.90;;;;;;5051473;28;20048;-68
2021/07/12 08:55:31;;;;;;;7.53;3.10;;;22.40;99.90;;;;;;5050978;28;20059;-68
2021/07/12 08:58:01;;;;;;;5.93;3.03;;;22.80;99.90;;;;;;5050137;28;20056;-68
2021/07/12 09:00:45;;;;;;;5.43;2.90;;;23.30;99.90;;;;;;5051445;28;20060;-68
2021/07/12 09:03:27;;;;;;;4.05;2.65;;;23.60;99.90;;;;;;5051022;28;20078;-68
2021/07/12 09:06:06;;;;;;;5.53;2.80;;;24.10;99.90;;;;;;5051226;28;20052;-68
2021/07/12 09:08:44;;;;;;;3.42;2.38;;;25.20;99.90;;;;;;5049471;28;20084;-68
2021/07/12 09:11:16;;;;;;;4.85;2.40;;;25.90;99.90;;;;;;5050342;28;20123;-68
2021/07/12 09:13:49;;;;;;;4.47;2.45;;;26.60;99.90;;;;;;5050969;28;20593;-68
2021/07/12 09:16:41;;;;;;;6.50;2.78;;;27.40;99.90;;;;;;5050630;28;20113;-68
2021/07/12 09:19:12;;;;;;;4.00;2.38;;;27.00;99.90;;;;;;5045526;28;20069;-69
2021/07/12 09:21:41;;;;;;;4.78;2.63;;;26.40;99.90;;;;;;5050364;28;20052;-68
2021/07/12 09:24:28;;;;;;;3.35;2.25;;;26.60;99.90;;;;;;5050780;28;20060;-69
2021/07/12 09:26:58;;;;;;;4.40;2.40;;;27.00;99.90;;;;;;5050475;28;20117;-69
2021/07/12 09:29:27;;;;;;;4.35;2.58;;;27.20;99.90;;;;;;5049710;28;20052;-68
2021/07/12 09:31:54;;;;;;;3.50;2.05;;;27.00;99.90;;;;;;5049805;28;20041;-68
2021/07/12 09:34:23;;;;;;;3.85;2.28;;;26.80;99.90;;;;;;5050027;28;20482;-69
2021/07/12 09:36:50;;;;;;;4.60;2.10;;;26.50;99.90;;;;;;5049752;28;20061;-71
2021/07/12 09:39:25;;;;;;;3.90;2.22;;;26.80;99.90;;;;;;5049537;28;20052;-69
2021/07/12 09:41:54;;;;;;;2.50;1.70;;;27.00;99.90;;;;;;5051577;28;20056;-70
2021/07/12 09:44:23;;;;;;;4.38;2.00;;;27.50;99.90;;;;;;5050175;28;20110;-69
2021/07/12 09:46:51;;;;;;;3.13;1.73;;;28.30;99.90;;;;;;5050418;28;20082;-69
2021/07/12 09:49:22;;;;;;;6.00;2.00;;;28.30;99.90;;;;;;5048549;28;20048;-70
2021/07/12 09:51:54;;;;;;;2.80;2.08;;;28.20;99.90;;;;;;5049799;28;21634;-69
2021/07/12 09:54:25;;;;;;;3.45;2.00;;;27.40;99.90;;;;;;5050207;28;20102;-69
2021/07/12 09:56:55;;;;;;;3.75;2.08;;;27.70;99.90;;;;;;5049667;28;20059;-69
2021/07/12 09:59:23;;;;;;;3.92;2.08;;;27.20;99.90;;;;;;5048437;28;20652;-69
2021/07/12 10:01:52;;;;;;;3.28;1.80;;;26.60;99.90;;;;;;5049659;28;20060;-70
2021/07/12 10:04:20;;;;;;;2.72;2.00;;;26.30;99.90;;;;;;5049920;28;20496;-67
2021/07/12 10:06:49;;;;;;;3.40;1.70;;;26.90;99.90;;;;;;5049573;28;20057;-67
2021/07/12 10:09:19;;;;;;;2.28;1.60;;;27.70;99.90;;;;;;5048099;28;20420;-67
2021/07/12 10:11:48;;;;;;;2.92;1.80;;;28.80;99.90;;;;;;5049303;28;20099;-67
2021/07/12 10:14:15;;;;;;;3.03;2.08;;;29.50;99.90;;;;;;5048795;28;20056;-67
2021/07/12 10:16:42;;;;;;;3.53;1.83;;;30.10;99.90;;;;;;5049416;28;20044;-67
2021/07/12 10:19:09;;;;;;;2.25;1.60;;;29.80;99.90;;;;;;5047893;28;20593;-70
2021/07/12 10:21:46;;;;;;;3.03;1.67;;;30.70;99.90;;;;;;5049824;28;20052;-69
2021/07/12 10:24:14;;;;;;;3.45;1.80;;;31.00;99.90;;;;;;5048462;28;20044;-70
2021/07/12 10:27:04;;;;;;;2.78;1.63;;;31.10;99.90;;;;;;5049486;28;20117;-70
2021/07/12 10:29:33;;;;;;;4.30;2.10;;;30.80;99.90;;;;;;5042657;28;20459;-70
2021/07/12 10:32:13;;;;;;;4.50;2.20;;;30.10;99.90;;;;;;5050398;28;20045;-70
2021/07/12 10:34:44;;;;;;;3.22;1.98;;;29.80;99.90;;;;;;5048417;28;20702;-69
2021/07/12 10:37:27;;;;;;;3.38;1.90;;;30.30;99.90;;;;;;5049979;28;20104;-70
2021/07/12 10:40:12;;;;;;;3.28;2.20;;;30.10;99.90;;;;;;5046303;28;20060;-70
2021/07/12 10:42:53;;;;;;;2.88;1.90;;;29.60;99.90;;;;;;5049205;28;20147;-70
2021/07/12 10:45:34;;;;;;;4.90;2.30;;;29.10;99.90;;;;;;5049807;28;20059;-70
2021/07/12 10:48:05;;;;;;;4.20;2.17;;;28.90;99.90;;;;;;5047809;28;20520;-69
2021/07/12 10:50:46;;;;;;;5.03;2.17;;;29.30;99.90;;;;;;5049289;28;20067;-69
2021/07/12 10:53:36;;;;;;;3.58;2.08;;;29.40;99.90;;;;;;5048972;28;20052;-70
2021/07/12 10:56:07;;;;;;;4.40;1.90;;;29.60;99.90;;;;;;5049074;28;20052;-69
2021/07/12 10:59:00;;;;;;;3.08;1.95;;;29.40;99.90;;;;;;5047474;28;20059;-69
2021/07/12 11:01:42;;;;;;;4.10;2.33;;;29.20;99.90;;;;;;5048571;28;20131;-69
2021/07/12 11:04:31;;;;;;;5.25;2.28;;;29.40;99.90;;;;;;5048600;28;20055;-69
2021/07/12 11:06:58;;;;;;;3.63;1.90;;;30.20;99.90;;;;;;5038618;28;20044;-69
2021/07/12 11:10:03;;;;;;;3.45;2.25;;;29.30;99.90;;;;;;5047360;28;20052;-69
2021/07/12 11:12:41;;;;;;;6.72;2.28;;;30.30;99.90;;;;;;4965603;28;20133;-69
2021/07/12 11:15:37;;;;;;;3.45;2.00;;;29.90;99.90;;;;;;4966624;28;20145;-69
2021/07/12 11:18:07;;;;;;;3.55;2.20;;;29.50;99.90;;;;;;5024517;28;20147;-69
2021/07/12 11:20:55;;;;;;;2.55;1.85;;;30.10;99.90;;;;;;5047005;28;20048;-69
2021/07/12 11:23:57;;;;;;;2.90;2.17;;;29.70;99.90;;;;;;5047382;28;20052;-69
2021/07/12 11:26:42;;;;;;;2.75;1.83;;;30.20;99.90;;;;;;5041114;28;20060;-69
2021/07/12 11:29:35;;;;;;;3.03;1.80;;;30.80;99.90;;;;;;5044006;28;20044;-69
2021/07/12 11:32:11;;;;;;;5.50;1.67;;;30.70;99.90;;;;;;5041678;28;20674;-69
2021/07/12 11:34:39;;;;;;;;;;;29.20;99.90;;;;;;5047132;28;20101;-69
2021/07/12 11:37:09;;;;;;;4.50;1.80;;;29.50;99.90;;;;;;5048099;28;19964;-69
2021/07/12 11:39:38;;;;;;;2.83;1.80;;;29.20;99.90;;;;;;5052243;28;20088;-69
2021/07/12 11:42:20;;;;;;;2.40;1.67;;;29.10;99.90;;;;;;5051244;28;20274;-69
2021/07/12 11:44:53;;;;;;;3.05;1.80;;;30.10;99.90;;;;;;5051479;28;20052;-69
2021/07/12 11:47:27;;;;;;;3.67;2.05;;;30.20;99.90;;;;;;5051921;28;20092;-69
2021/07/12 11:50:00;;;;;;;3.33;1.83;;;30.80;99.90;;;;;;5053065;28;20501;-70
2021/07/12 11:52:28;;;;;;;7.10;2.15;;;31.50;99.90;;;;;;5053258;28;20092;-69
2021/07/12 11:55:00;;;;;;;2.47;1.90;;;31.70;99.90;;;;;;5048002;28;20126;-69
2021/07/12 11:57:27;;;;;;;3.63;2.10;;;31.80;99.90;;;;;;5046810;28;20044;-69
2021/07/12 11:59:54;;;;;;;3.10;1.90;;;31.70;99.90;;;;;;5046169;28;20048;-69
2021/07/12 12:02:21;;;;;;;3.72;1.90;;;31.50;99.90;;;;;;5044833;28;20063;-69
2021/07/12 12:04:53;;;;;;;2.22;1.70;;;30.10;99.90;;;;;;5046238;28;21119;-69
2021/07/12 12:07:31;;;;;;;4.15;1.92;;;30.20;99.90;;;;;;5047565;28;20060;-69
2021/07/12 12:10:00;;;;;;;3.10;2.08;;;30.80;99.90;;;;;;5048362;28;20052;-69
2021/07/12 12:12:30;;;;;;;3.63;2.13;;;30.60;99.90;;;;;;5048440;28;20048;-69
2021/07/12 12:14:59;;;;;;;3.58;1.88;;;30.70;99.90;;;;;;5052734;28;20113;-70
2021/07/12 12:17:26;;;;;;;3.30;2.10;;;30.80;99.90;;;;;;5051192;28;20798;-69
2021/07/12 12:20:08;;;;;;;3.42;1.77;;;31.00;99.90;;;;;;5049840;28;20076;-69
2021/07/12 12:22:36;;;;;;;3.67;1.80;;;30.30;99.90;;;;;;5051832;28;20126;-69
2021/07/12 12:25:05;;;;;;;3.17;2.10;;;30.40;99.90;;;;;;5050260;28;20698;-69
2021/07/12 12:27:33;;;;;;;4.28;2.20;;;30.50;99.90;;;;;;5051614;28;20049;-69
2021/07/12 12:30:01;;;;;;;2.83;1.60;;;30.80;99.90;;;;;;5050540;28;20049;-69
2021/07/12 12:32:35;;;;;;;3.67;1.80;;;31.60;99.90;;;;;;5048761;28;20127;-70
2021/07/12 12:35:04;;;;;;;1.65;1.42;;;31.90;99.90;;;;;;5051398;28;20534;-69
2021/07/12 12:37:36;;;;;;;4.18;1.90;;;32.40;99.90;;;;;;5049394;28;20060;-70
2021/07/12 12:40:25;;;;;;;2.92;1.63;;;32.00;99.90;;;;;;5050462;28;20127;-70
2021/07/12 12:42:53;;;;;;;2.67;1.95;;;32.10;99.90;;;;;;5042938;28;20048;-70
2021/07/12 12:45:29;;;;;;;3.55;1.98;;;32.20;99.90;;;;;;5046418;28;20106;-70
2021/07/12 12:47:57;;;;;;;2.28;1.48;;;32.10;99.90;;;;;;5050227;28;20052;-69
2021/07/12 12:50:25;;;;;;;3.10;1.73;;;31.90;99.90;;;;;;5048086;28;20496;-69
2021/07/12 12:53:05;;;;;;;3.65;1.50;;;32.30;99.90;;;;;;5050094;28;20456;-69
2021/07/12 12:55:32;;;;;;;2.90;1.60;;;31.80;99.90;;;;;;5050830;28;20036;-69